Time;durP1;ratioP1;P1;durP2;ratioP2;P2;SDS_P1;SDS_P2;PMS_P1;PMS_P2;Temp;Humidity;BMP_temperature;BMP_pressure;BME280_temperature;BME280_humidity;BME280_pressure;Samples;Min_cycle;Max_cycle;Signal;HPM_P1;HPM_P2
2024/01/31 00:01:37;;;;;;;;;;;11.40;52.30;;;9.87;54.75;102490.44;12261160;19;19923;-86
2024/01/31 00:05:38;;;;;;;;;;;11.30;52.20;;;9.90;54.77;102498.19;12260125;19;20235;-85
2024/01/31 00:09:40;;;;;;;;;;;11.30;52.30;;;9.88;54.81;102502.56;12259226;19;19915;-86
2024/01/31 00:13:41;;;;;;;;;;;11.30;52.30;;;9.74;54.77;102485.50;12262477;19;19911;-86
2024/01/31 00:17:43;;;;;;;;;;;11.30;52.30;;;9.77;54.65;102486.31;12258895;19;19934;-86
2024/01/31 00:21:44;;;;;;;;;;;11.30;52.30;;;9.67;54.81;102467.44;12259413;19;19919;-86
2024/01/31 00:25:46;;;;;;;;;;;11.20;52.30;;;9.75;54.78;102491.59;12261753;19;19936;-85
2024/01/31 00:29:47;;;;;;;;;;;11.20;52.30;;;9.80;54.72;102500.13;12259289;19;19915;-86
2024/01/31 00:33:49;;;;;;;;;;;11.20;52.40;;;9.73;54.73;102490.75;12259593;19;19914;-86
2024/01/31 00:37:53;;;;;;;;;;;11.20;52.40;;;9.78;54.73;102501.09;12259228;19;19918;-86
2024/01/31 00:41:54;;;;;;;;;;;11.20;52.40;;;9.71;54.86;102496.00;12261321;19;19923;-86
2024/01/31 00:45:56;;;;;;;;;;;11.20;52.50;;;9.74;54.81;102498.53;12261305;19;19939;-86
2024/01/31 00:49:57;;;;;;;;;;;11.20;52.50;;;9.77;54.89;102502.81;12257774;19;20259;-86
2024/01/31 00:53:59;;;;;;;;;;;11.20;52.60;;;9.87;55.04;102506.09;12260589;19;19915;-86
2024/01/31 00:58:00;;;;;;;;;;;11.20;52.60;;;9.83;54.84;102496.59;12257685;19;19994;-86
2024/01/31 01:02:02;;;;;;;;;;;11.20;52.60;;;9.67;55.03;102462.22;12261436;19;19974;-86
2024/01/31 01:06:04;;;;;;;;;;;11.30;52.70;;;9.69;55.02;102460.41;12259373;19;19918;-86
2024/01/31 01:10:15;;;;;;;;;;;11.30;52.70;;;9.93;54.94;102496.34;12256862;19;20009;-86
2024/01/31 01:14:17;;;;;;;;;;;11.40;52.70;;;10.05;55.03;102512.63;12258725;19;19957;-85
2024/01/31 01:18:18;;;;;;;;;;;11.50;52.70;;;9.94;54.80;102494.63;12255955;19;19919;-85
2024/01/31 01:22:20;;;;;;;;;;;11.50;53.00;;;9.98;54.95;102497.09;12258918;19;19915;-86
2024/01/31 01:26:22;;;;;;;;;;;11.40;52.70;;;10.04;55.00;102506.53;12255928;19;19930;-86
2024/01/31 01:30:23;;;;;;;;;;;11.50;52.70;;;10.04;54.92;102496.09;12254694;19;19911;-85
2024/01/31 01:34:24;;;;;;;;;;;11.50;52.70;;;10.07;54.86;102503.88;12255759;19;19927;-86
2024/01/31 01:38:26;;;;;;;;;;;11.50;52.70;;;10.13;55.11;102514.16;12254138;19;19947;-86
2024/01/31 01:42:28;;;;;;;;;;;11.50;52.70;;;10.04;54.92;102493.47;12254239;19;19911;-86
2024/01/31 01:46:32;;;;;;;;;;;11.60;52.70;;;10.12;55.01;102495.91;12255941;19;19938;-86
2024/01/31 01:50:33;;;;;;;;;;;11.50;52.70;;;10.19;55.16;102508.78;12253043;19;19911;-86
2024/01/31 01:54:36;;;;;;;;;;;11.60;52.70;;;10.12;55.18;102483.72;12254129;19;20379;-86
2024/01/31 01:58:37;;;;;;;;;;;11.60;52.70;;;10.18;54.93;102494.03;12252943;19;20354;-86
2024/01/31 02:02:39;;;;;;;;;;;11.60;52.70;;;9.99;55.11;102456.22;12254009;19;20309;-86
2024/01/31 02:06:41;;;;;;;;;;;11.70;52.70;;;10.24;54.99;102497.38;12252582;19;19919;-86
2024/01/31 02:10:43;;;;;;;;;;;11.70;52.70;;;10.28;54.90;102496.41;12251631;19;20341;-86
2024/01/31 02:14:47;;;;;;;;;;;11.70;52.70;;;10.26;54.95;102492.94;12256338;19;20363;-86
2024/01/31 02:18:49;;;;;;;;;;;11.70;52.70;;;10.22;55.05;102478.28;12251264;19;19922;-85
2024/01/31 02:22:51;;;;;;;;;;;11.70;52.60;;;10.35;54.97;102508.44;12254907;19;19910;-85
2024/01/31 02:26:52;;;;;;;;;;;11.80;52.70;;;10.31;55.01;102496.34;12251351;19;20293;-86
2024/01/31 02:30:54;;;;;;;;;;;11.80;52.60;;;10.37;55.12;102507.50;12250942;19;19911;-85
2024/01/31 02:34:55;;;;;;;;;;;11.80;52.60;;;10.30;55.06;102503.31;12253065;19;19919;-85
2024/01/31 02:38:57;;;;;;;;;;;11.80;52.60;;;10.11;54.99;102458.50;12245618;19;19918;-85
2024/01/31 02:42:59;;;;;;;;;;;11.80;52.60;;;10.49;55.02;102513.28;12251494;19;19940;-85
2024/01/31 02:47:00;;;;;;;;;;;11.90;52.70;;;10.43;54.95;102490.81;12252552;19;19911;-86
2024/01/31 02:51:02;;;;;;;;;;;11.90;52.70;;;10.39;54.93;102491.78;12249854;19;19919;-85
2024/01/31 02:55:04;;;;;;;;;;;11.90;53.00;;;10.46;55.06;102480.28;12251209;19;19978;-86
2024/01/31 02:59:06;;;;;;;;;;;11.90;52.70;;;10.55;55.10;102490.47;12247379;19;19922;-85
2024/01/31 03:03:07;;;;;;;;;;;11.90;52.60;;;10.56;55.11;102505.25;12252687;19;19926;-86
2024/01/31 03:07:10;;;;;;;;;;;12.00;52.70;;;10.52;55.04;102502.75;12251874;19;19919;-86
2024/01/31 03:11:11;;;;;;;;;;;12.00;52.70;;;10.57;54.97;102506.97;12250588;19;19932;-85
2024/01/31 03:15:13;;;;;;;;;;;12.00;52.70;;;10.59;55.04;102517.41;12249247;19;19919;-85
2024/01/31 03:19:15;;;;;;;;;;;12.00;52.70;;;10.48;55.17;102499.38;12248509;19;20308;-86
2024/01/31 03:23:16;;;;;;;;;;;12.00;52.70;;;10.53;55.06;102507.97;12253205;19;19918;-84
2024/01/31 03:27:17;;;;;;;;;;;12.00;52.70;;;10.59;54.99;102520.84;12249735;19;20263;-86
2024/01/31 03:31:19;;;;;;;;;;;12.00;52.70;;;10.61;55.06;102523.41;12247077;19;20330;-85
2024/01/31 03:35:21;;;;;;;;;;;12.00;52.70;;;10.65;55.26;102530.28;12249810;19;19918;-85
2024/01/31 03:39:22;;;;;;;;;;;12.00;52.70;;;10.56;55.24;102526.16;12246068;19;19939;-85
2024/01/31 03:43:24;;;;;;;;;;;12.10;52.70;;;10.60;55.05;102537.38;12249293;19;20250;-86
2024/01/31 03:47:25;;;;;;;;;;;12.10;52.80;;;10.44;54.98;102507.34;12246901;19;19914;-85
2024/01/31 03:51:27;;;;;;;;;;;12.10;52.80;;;10.67;55.18;102557.22;12244856;19;20274;-86
2024/01/31 03:55:28;;;;;;;;;;;12.10;52.80;;;10.45;55.08;102522.97;12249985;19;19919;-85
2024/01/31 03:59:30;;;;;;;;;;;12.10;52.80;;;10.60;55.15;102543.47;12250426;19;19947;-86
2024/01/31 04:03:32;;;;;;;;;;;12.10;52.90;;;10.43;55.10;102526.53;12249546;19;20282;-86
2024/01/31 04:07:33;;;;;;;;;;;12.10;52.80;;;10.70;55.16;102572.81;12243118;19;19915;-86
2024/01/31 04:11:35;;;;;;;;;;;12.10;52.90;;;10.40;55.13;102532.69;12258347;19;20340;-85
2024/01/31 04:15:37;;;;;;;;;;;12.10;52.90;;;10.54;55.17;102566.28;12259893;19;20270;-85
2024/01/31 04:19:38;;;;;;;;;;;12.00;52.80;;;10.48;55.07;102556.84;12262119;19;19911;-86
2024/01/31 04:23:39;;;;;;;;;;;12.00;52.80;;;10.34;55.08;102538.91;12261873;19;19974;-86
2024/01/31 04:27:41;;;;;;;;;;;12.00;52.80;;;10.07;55.32;102496.03;12259460;19;20353;-85
2024/01/31 04:31:42;;;;;;;;;;;12.00;52.80;;;10.45;55.13;102562.16;12262019;19;19930;-86
2024/01/31 04:35:44;;;;;;;;;;;11.90;52.80;;;10.54;55.16;102580.19;12262413;19;19974;-86
2024/01/31 04:39:50;;;;;;;;;;;11.90;52.80;;;10.53;55.18;102581.09;12261489;19;20318;-87
2024/01/31 04:43:53;;;;;;;;;;;11.90;52.80;;;10.44;55.25;102575.25;12260763;19;19913;-85
2024/01/31 04:47:54;;;;;;;;;;;11.90;52.80;;;10.46;55.27;102579.53;12256536;19;19942;-86
2024/01/31 04:51:56;;;;;;;;;;;11.90;52.80;;;10.46;55.36;102583.91;12261069;19;19919;-86
2024/01/31 04:55:57;;;;;;;;;;;11.90;52.80;;;10.50;55.24;102596.81;12257604;19;19927;-86
2024/01/31 04:59:58;;;;;;;;;;;12.00;52.90;;;10.46;55.19;102597.81;12259756;19;19957;-85
2024/01/31 05:04:00;;;;;;;;;;;11.80;52.80;;;10.37;55.30;102588.47;12258537;19;19911;-85
2024/01/31 05:08:02;;;;;;;;;;;11.90;52.80;;;10.44;55.06;102601.34;12257268;19;19911;-85
2024/01/31 05:12:04;;;;;;;;;;;11.90;52.80;;;10.41;55.31;102607.50;12251487;19;19922;-85
2024/01/31 05:16:09;;;;;;;;;;;11.80;52.80;;;10.38;55.33;102610.19;12257839;19;20358;-86
2024/01/31 05:20:10;;;;;;;;;;;11.80;52.80;;;10.17;55.16;102572.38;12256778;19;19978;-86
2024/01/31 05:24:13;;;;;;;;;;;11.80;52.80;;;10.31;55.32;102604.25;12258041;19;19943;-86
2024/01/31 05:28:14;;;;;;;;;;;11.70;52.90;;;10.31;55.22;102606.00;12251794;19;19930;-86
2024/01/31 05:32:16;;;;;;;;;;;11.80;52.80;;;10.29;55.32;102608.69;12248935;19;19987;-85
2024/01/31 05:36:17;;;;;;;;;;;11.70;52.80;;;10.19;55.33;102599.31;12258096;19;19923;-85
2024/01/31 05:40:19;;;;;;;;;;;11.70;52.80;;;10.27;55.20;102605.22;12258291;19;19923;-86
2024/01/31 05:44:21;;;;;;;;;;;11.70;52.90;;;10.23;55.17;102613.13;12254979;19;19978;-85
2024/01/31 05:48:22;;;;;;;;;;;11.60;52.80;;;10.14;55.14;102607.22;12252049;19;19922;-85
2024/01/31 05:52:24;;;;;;;;;;;11.60;52.80;;;10.22;55.16;102621.88;12252867;19;19939;-85
2024/01/31 05:56:25;;;;;;;;;;;11.60;52.80;;;10.16;55.46;102618.50;12255509;19;19923;-86
2024/01/31 06:00:26;;;;;;;;;;;11.60;52.80;;;10.12;55.29;102616.84;12255930;19;19915;-86
2024/01/31 06:04:28;;;;;;;;;;;11.60;52.80;;;10.16;55.35;102623.72;12255986;19;20243;-86
2024/01/31 06:08:29;;;;;;;;;;;11.60;52.80;;;10.07;55.14;102629.16;12253187;19;20333;-85
2024/01/31 06:12:31;;;;;;;;;;;11.60;52.80;;;10.03;55.36;102621.44;12255319;19;19911;-85
2024/01/31 06:16:33;;;;;;;;;;;11.50;52.80;;;9.94;55.21;102633.78;12252064;19;20275;-86
2024/01/31 06:20:40;;;;;;;;;;;11.50;52.80;;;9.78;55.12;102626.34;12254514;19;19911;-85
2024/01/31 06:24:41;;;;;;;;;;;11.50;52.80;;;10.01;55.46;102683.25;12247439;19;19907;-86
2024/01/31 06:28:43;;;;;;;;;;;11.40;52.80;;;9.95;55.39;102687.69;12250653;19;19919;-86
2024/01/31 06:32:47;;;;;;;;;;;11.40;52.70;;;9.81;55.21;102668.00;12252274;19;19927;-86
2024/01/31 06:36:48;;;;;;;;;;;11.30;52.70;;;9.82;55.44;102687.97;12252279;19;19935;-86
2024/01/31 06:40:50;;;;;;;;;;;11.30;52.80;;;9.89;55.31;102713.94;12255207;19;19917;-86
2024/01/31 06:44:51;;;;;;;;;;;11.30;52.80;;;9.41;55.36;102645.31;12254717;19;19923;-86
2024/01/31 06:48:53;;;;;;;;;;;11.30;52.70;;;9.86;55.21;102720.97;12251397;19;19970;-86
2024/01/31 06:52:54;;;;;;;;;;;11.20;52.70;;;9.64;55.19;102697.91;12253792;19;19944;-86
2024/01/31 06:56:56;;;;;;;;;;;11.20;52.70;;;9.75;55.25;102719.44;12253244;19;20603;-86
2024/01/31 07:01:01;;;;;;;;;;;11.30;52.70;;;9.65;55.18;102709.19;12253179;19;19926;-85
2024/01/31 07:05:06;;;;;;;;;;;11.10;52.50;;;9.69;55.40;102740.41;12245767;19;22017;-87
2024/01/31 07:09:08;;;;;;;;;;;11.10;52.50;;;9.64;55.16;102739.66;12251991;19;19915;-87
2024/01/31 07:13:09;;;;;;;;;;;11.00;52.50;;;9.60;55.08;102731.91;12250575;19;20582;-86
2024/01/31 07:17:11;;;;;;;;;;;11.10;52.40;;;9.39;55.21;102710.53;12251873;19;20263;-86
2024/01/31 07:21:23;;;;;;;;;;;11.00;52.70;;;9.57;55.40;102745.84;12251761;19;19955;-86
2024/01/31 07:25:24;;;;;;;;;;;11.00;52.30;;;9.58;55.32;102750.16;12252355;19;19923;-87
2024/01/31 07:29:25;;;;;;;;;;;10.90;52.20;;;9.48;55.28;102754.72;12248479;19;19915;-86
2024/01/31 07:33:27;;;;;;;;;;;10.90;52.20;;;9.45;55.34;102767.81;12251635;19;19919;-86
2024/01/31 07:37:28;;;;;;;;;;;10.90;52.10;;;9.37;55.42;102751.44;12247150;19;20338;-87
2024/01/31 07:41:30;;;;;;;;;;;10.90;52.20;;;9.49;55.22;102779.03;12244267;19;19922;-87
2024/01/31 07:45:31;;;;;;;;;;;10.90;52.20;;;9.38;55.18;102766.19;12262236;19;19926;-86
2024/01/31 07:49:33;;;;;;;;;;;10.80;52.20;;;9.24;55.34;102753.38;12259409;19;19928;-86
2024/01/31 07:53:36;;;;;;;;;;;10.80;52.10;;;9.28;55.15;102768.06;12261256;19;19951;-86
2024/01/31 07:57:38;;;;;;;;;;;10.80;52.10;;;9.29;55.28;102784.59;12255408;19;19978;-86
2024/01/31 08:01:39;;;;;;;;;;;10.80;52.10;;;9.13;55.20;102759.66;12262228;19;19922;-86
2024/01/31 08:05:41;;;;;;;;;;;10.70;52.10;;;9.38;55.42;102802.69;12263289;19;19907;-87
2024/01/31 08:09:42;;;;;;;;;;;10.70;52.10;;;9.26;55.26;102793.34;12259767;19;19925;-86
2024/01/31 08:13:43;;;;;;;;;;;10.70;52.10;;;9.30;55.16;102804.56;12261913;19;19923;-86
2024/01/31 08:17:46;;;;;;;;;;;10.70;52.00;;;9.30;55.32;102813.25;12258491;19;19911;-87
2024/01/31 08:21:48;;;;;;;;;;;10.70;52.00;;;9.20;55.36;102809.06;12260673;19;19907;-86
2024/01/31 08:25:49;;;;;;;;;;;10.70;52.10;;;9.24;55.18;102818.56;12260944;19;19931;-87
2024/01/31 08:29:51;;;;;;;;;;;10.70;52.10;;;9.17;55.33;102814.31;12261537;19;20013;-86
2024/01/31 08:33:53;;;;;;;;;;;10.70;52.10;;;9.27;55.17;102817.66;12257200;19;20330;-86
2024/01/31 08:37:56;;;;;;;;;;;10.60;52.10;;;9.25;55.12;102825.47;12258529;19;19926;-86
2024/01/31 08:41:57;;;;;;;;;;;10.60;52.00;;;9.22;55.37;102832.50;12257396;19;19978;-86
2024/01/31 08:45:59;;;;;;;;;;;10.60;52.00;;;9.02;55.27;102812.81;12262041;19;19949;-87
2024/01/31 08:50:01;;;;;;;;;;;10.60;52.00;;;9.15;55.35;102831.72;12260534;19;19911;-86
2024/01/31 08:54:02;;;;;;;;;;;10.60;52.00;;;9.14;55.34;102835.22;12260307;19;19926;-86
2024/01/31 08:58:04;;;;;;;;;;;10.60;52.00;;;9.12;55.25;102833.53;12257231;19;19911;-86
2024/01/31 09:02:06;;;;;;;;;;;10.60;52.00;;;9.05;55.20;102817.13;12260044;19;19944;-86
2024/01/31 09:06:07;;;;;;;;;;;10.60;52.00;;;9.22;55.19;102835.13;12260116;19;19915;-86
2024/01/31 09:10:09;;;;;;;;;;;10.70;52.10;;;9.05;55.10;102827.56;12256065;19;19907;-86
2024/01/31 09:14:11;;;;;;;;;;;10.60;52.10;;;9.02;55.23;102838.88;12259401;19;19918;-87
2024/01/31 09:18:13;;;;;;;;;;;10.60;52.00;;;9.12;55.35;102855.22;12255759;19;19919;-86
2024/01/31 09:22:14;;;;;;;;;;;10.60;52.00;;;9.08;55.35;102848.34;12258790;19;19923;-86
2024/01/31 09:26:16;;;;;;;;;;;10.50;52.00;;;9.04;55.29;102837.09;12258201;19;19936;-87
2024/01/31 09:30:18;;;;;;;;;;;10.50;52.10;;;9.02;55.12;102833.66;12256292;19;19907;-87
2024/01/31 09:34:19;;;;;;;;;;;10.50;52.10;;;8.96;55.08;102827.66;12257822;19;20017;-87
2024/01/31 09:38:25;;;;;;;;;;;10.50;52.20;;;9.04;55.26;102846.66;12255840;19;19926;-86
2024/01/31 09:42:27;;;;;;;;;;;10.50;52.10;;;9.11;55.01;102857.88;12259352;19;20007;-86
2024/01/31 09:46:29;;;;;;;;;;;10.50;52.10;;;9.07;55.09;102844.00;12254261;19;19926;-86
2024/01/31 09:50:31;;;;;;;;;;;10.50;52.00;;;8.98;55.17;102825.91;12253688;19;19911;-88
2024/01/31 09:54:33;;;;;;;;;;;10.50;52.00;;;9.17;55.25;102857.78;12256348;19;19926;-87
2024/01/31 09:58:36;;;;;;;;;;;10.50;52.00;;;9.14;55.28;102856.06;12253019;19;20336;-85
2024/01/31 10:02:38;;;;;;;;;;;10.60;52.10;;;9.08;55.28;102835.31;12255470;19;19921;-88
2024/01/31 10:06:39;;;;;;;;;;;10.60;52.10;;;9.03;55.30;102838.00;12244056;19;20275;-86
2024/01/31 10:10:41;;;;;;;;;;;10.70;52.10;;;9.02;55.19;102825.84;12254288;19;19919;-87
2024/01/31 10:14:42;;;;;;;;;;;10.50;52.00;;;9.11;55.17;102837.03;12254020;19;19923;-88
2024/01/31 10:18:44;;;;;;;;;;;10.60;52.00;;;9.09;55.28;102824.84;12250279;19;20282;-87
2024/01/31 10:22:46;;;;;;;;;;;10.60;52.00;;;9.09;55.17;102811.81;12256440;19;19982;-86
2024/01/31 10:26:47;;;;;;;;;;;10.50;52.00;;;9.04;55.04;102802.34;12252306;19;19915;-87
2024/01/31 10:30:48;;;;;;;;;;;10.70;52.10;;;9.05;55.24;102804.09;12252379;19;19931;-86
2024/01/31 10:34:52;;;;;;;;;;;10.50;52.00;;;9.06;55.28;102808.41;12252065;19;19922;-87
2024/01/31 10:38:53;;;;;;;;;;;10.60;52.10;;;9.14;55.33;102811.75;12247872;19;19926;-87
2024/01/31 10:42:57;;;;;;;;;;;10.60;52.10;;;9.18;55.28;102825.59;12236089;19;19911;-87
2024/01/31 10:46:58;;;;;;;;;;;10.60;52.00;;;9.24;55.39;102826.38;12250884;19;19974;-87
2024/01/31 10:51:01;;;;;;;;;;;10.60;52.00;;;9.27;55.35;102823.72;12249683;19;19970;-87
2024/01/31 10:55:03;;;;;;;;;;;10.70;52.10;;;9.30;55.24;102833.25;12252331;19;19923;-86
2024/01/31 10:59:08;;;;;;;;;;;10.70;51.90;;;9.18;55.35;102802.13;12245836;19;20507;-86
2024/01/31 11:03:12;;;;;;;;;;;10.70;51.80;;;9.00;55.26;102782.47;12249714;19;19938;-87
2024/01/31 11:07:16;;;;;;;;;;;10.70;51.90;;;9.29;55.17;102845.44;12249885;19;19911;-86
2024/01/31 11:11:18;;;;;;;;;;;10.70;51.80;;;9.28;55.26;102835.88;12248486;19;20246;-87
2024/01/31 11:15:34;;;;;;;;;;;10.70;52.00;;;9.17;55.16;102811.72;12246394;19;19911;-86
2024/01/31 11:19:52;;;;;;;;;;;10.70;52.10;;;9.29;55.29;102808.94;12249938;19;19923;-86
2024/01/31 11:23:53;;;;;;;;;;;10.70;52.10;;;9.27;55.16;102788.97;12251318;19;19929;-86
2024/01/31 11:27:55;;;;;;;;;;;10.80;52.00;;;9.33;55.17;102794.09;12240783;19;19948;-86
2024/01/31 11:31:57;;;;;;;;;;;10.90;52.00;;;9.29;55.37;102784.59;12249432;19;19958;-86
2024/01/31 11:35:59;;;;;;;;;;;10.80;52.00;;;9.41;55.35;102815.66;12246472;19;19923;-86
2024/01/31 11:40:00;;;;;;;;;;;10.80;52.10;;;9.26;55.30;102777.69;12249005;19;19935;-86
2024/01/31 11:44:02;;;;;;;;;;;10.80;52.00;;;9.38;55.28;102789.66;12247313;19;19923;-86
2024/01/31 11:48:04;;;;;;;;;;;10.80;52.00;;;9.40;55.22;102800.06;12247831;19;20363;-86
2024/01/31 11:52:05;;;;;;;;;;;10.80;52.00;;;9.38;55.31;102789.66;12249468;19;20333;-87
2024/01/31 11:56:07;;;;;;;;;;;10.90;52.10;;;9.43;55.23;102773.94;12244748;19;19935;-86
2024/01/31 12:00:09;;;;;;;;;;;10.90;52.10;;;9.47;55.34;102771.22;12245528;19;19931;-86
2024/01/31 12:04:14;;;;;;;;;;;10.90;52.10;;;9.45;55.31;102752.16;12248319;19;19918;-87
2024/01/31 12:08:17;;;;;;;;;;;10.90;51.70;;;9.37;55.19;102734.91;12248720;19;19915;-86
2024/01/31 12:12:18;;;;;;;;;;;11.00;51.80;;;9.52;55.07;102763.34;12246286;19;20312;-86
2024/01/31 12:16:20;;;;;;;;;;;11.00;51.80;;;9.53;55.12;102746.78;12244387;19;19915;-86
2024/01/31 12:20:21;;;;;;;;;;;11.00;51.80;;;9.47;55.09;102731.25;12244634;19;19926;-86
2024/01/31 12:24:23;;;;;;;;;;;10.90;51.60;;;9.25;55.26;102699.50;12241362;19;20369;-86
2024/01/31 12:28:25;;;;;;;;;;;10.90;51.60;;;9.39;55.12;102731.38;12243151;19;19986;-86
2024/01/31 12:32:26;;;;;;;;;;;10.80;51.60;;;9.20;54.99;102688.28;12255607;19;19915;-85
2024/01/31 12:36:28;;;;;;;;;;;10.80;51.60;;;9.27;55.11;102690.75;12254098;19;19919;-85
2024/01/31 12:40:29;;;;;;;;;;;11.00;51.70;;;9.32;55.01;102706.34;12254905;19;20381;-85
2024/01/31 12:44:31;;;;;;;;;;;10.70;51.50;;;9.24;55.00;102701.25;12254799;19;19919;-85
2024/01/31 12:48:33;;;;;;;;;;;10.70;51.40;;;9.25;55.13;102708.19;12252439;19;19943;-85
2024/01/31 12:52:34;;;;;;;;;;;10.70;51.50;;;9.12;55.11;102698.84;12254917;19;19926;-86
2024/01/31 12:56:35;;;;;;;;;;;10.70;51.30;;;9.15;54.98;102711.81;12252535;19;19923;-86
2024/01/31 13:00:37;;;;;;;;;;;10.60;51.20;;;9.10;55.16;102708.47;12253692;19;19927;-87
2024/01/31 13:04:39;;;;;;;;;;;10.60;51.20;;;9.12;55.08;102708.41;12253221;19;19914;-88
2024/01/31 13:08:40;;;;;;;;;;;10.60;51.10;;;9.09;55.09;102704.13;12250175;19;19922;-86
2024/01/31 13:12:42;;;;;;;;;;;10.50;51.20;;;9.00;54.92;102681.69;12254919;19;19922;-86
2024/01/31 13:16:43;;;;;;;;;;;10.50;51.00;;;8.98;55.09;102682.59;12252182;19;19915;-85
2024/01/31 13:20:45;;;;;;;;;;;10.50;50.90;;;8.75;55.18;102649.09;12254144;19;19907;-87
2024/01/31 13:24:46;;;;;;;;;;;10.50;51.00;;;8.94;54.99;102681.81;12253051;19;20385;-86
2024/01/31 13:28:49;;;;;;;;;;;10.50;50.80;;;8.93;55.05;102677.44;12250229;19;19919;-86
2024/01/31 13:32:50;;;;;;;;;;;10.40;50.90;;;8.93;54.97;102661.81;12250410;19;19915;-86
2024/01/31 13:36:52;;;;;;;;;;;10.40;50.70;;;8.98;55.17;102680.84;12249510;19;19918;-86
2024/01/31 13:40:54;;;;;;;;;;;10.40;50.90;;;8.99;55.13;102679.97;12252442;19;19922;-86
2024/01/31 13:44:55;;;;;;;;;;;10.40;51.10;;;8.95;55.11;102667.03;12250281;19;20270;-86
2024/01/31 13:48:57;;;;;;;;;;;10.40;51.00;;;8.99;55.05;102679.09;12246813;19;19907;-86
2024/01/31 13:52:59;;;;;;;;;;;10.40;51.00;;;9.00;55.02;102683.44;12252465;19;19974;-86
2024/01/31 13:57:00;;;;;;;;;;;10.40;50.70;;;8.79;54.91;102643.81;12250693;19;19919;-86
2024/01/31 14:01:02;;;;;;;;;;;10.40;51.00;;;8.71;54.99;102640.47;12252949;19;19923;-86
2024/01/31 14:05:03;;;;;;;;;;;10.40;51.00;;;8.97;54.80;102680.88;12251104;19;20334;-86
2024/01/31 14:09:05;;;;;;;;;;;10.40;51.00;;;8.91;54.92;102678.38;12246570;19;19930;-86
2024/01/31 14:13:06;;;;;;;;;;;10.50;51.00;;;8.61;54.99;102638.91;12253408;19;19961;-85
2024/01/31 14:17:08;;;;;;;;;;;10.40;51.00;;;8.88;55.06;102688.84;12252546;19;19914;-86
2024/01/31 14:21:13;;;;;;;;;;;10.40;51.10;;;8.73;55.06;102651.75;12247941;19;19923;-85
2024/01/31 14:25:15;;;;;;;;;;;10.30;51.10;;;8.86;54.88;102665.44;12250502;19;20333;-85
2024/01/31 14:29:16;;;;;;;;;;;10.30;51.00;;;8.72;54.98;102630.91;12249472;19;19978;-86
2024/01/31 14:33:18;;;;;;;;;;;10.30;51.10;;;8.82;55.05;102646.38;12249083;19;20339;-86
2024/01/31 14:37:19;;;;;;;;;;;10.30;51.30;;;8.82;54.86;102656.78;12245289;19;19930;-86
2024/01/31 14:41:21;;;;;;;;;;;10.30;51.10;;;8.77;54.99;102614.31;12251495;19;19989;-86
2024/01/31 14:45:22;;;;;;;;;;;10.20;50.90;;;8.78;54.99;102597.84;12248932;19;19933;-85
2024/01/31 14:49:23;;;;;;;;;;;10.20;51.00;;;8.77;54.79;102603.91;12247846;19;19948;-86
2024/01/31 14:53:25;;;;;;;;;;;10.30;51.10;;;8.81;54.77;102639.44;12247787;19;19922;-85
2024/01/31 14:57:26;;;;;;;;;;;10.20;51.10;;;8.72;54.82;102625.72;12247230;19;19932;-85
2024/01/31 15:01:28;;;;;;;;;;;10.20;51.10;;;8.81;54.95;102636.84;12249102;19;19951;-85
2024/01/31 15:05:29;;;;;;;;;;;10.30;51.10;;;8.78;54.91;102623.88;12248643;19;19948;-86
2024/01/31 15:09:30;;;;;;;;;;;10.20;51.10;;;8.78;54.99;102605.66;12246134;19;20341;-85
2024/01/31 15:13:32;;;;;;;;;;;10.20;51.10;;;8.71;54.72;102570.16;12248754;19;20001;-86
2024/01/31 15:17:33;;;;;;;;;;;10.20;51.10;;;8.58;54.85;102548.69;12247716;19;19922;-88
2024/01/31 15:21:35;;;;;;;;;;;10.20;51.10;;;8.83;54.98;102596.00;12239792;19;19974;-86
2024/01/31 15:25:36;;;;;;;;;;;10.20;51.20;;;8.76;54.79;102573.53;12249576;19;19915;-86
2024/01/31 15:29:38;;;;;;;;;;;10.20;51.20;;;8.78;54.79;102577.00;12244113;19;19923;-86
2024/01/31 15:33:39;;;;;;;;;;;10.20;51.30;;;8.84;54.71;102586.44;12248721;19;19914;-85
2024/01/31 15:37:40;;;;;;;;;;;10.20;51.30;;;8.79;54.71;102572.63;12244993;19;20590;-86
2024/01/31 15:41:42;;;;;;;;;;;10.20;51.20;;;8.66;54.73;102560.72;12247211;19;19920;-86
2024/01/31 15:45:44;;;;;;;;;;;10.20;51.20;;;8.64;54.83;102576.34;12246231;19;20334;-86
2024/01/31 15:49:45;;;;;;;;;;;10.20;51.20;;;8.71;54.94;102588.41;12245215;19;19919;-86
2024/01/31 15:53:47;;;;;;;;;;;10.20;51.10;;;8.65;54.80;102583.31;12247685;19;19971;-85
2024/01/31 15:57:48;;;;;;;;;;;10.10;51.10;;;8.57;54.91;102572.16;12243142;19;19914;-85
2024/01/31 16:01:50;;;;;;;;;;;10.10;51.00;;;8.54;54.93;102569.59;12245646;19;19911;-86
2024/01/31 16:05:51;;;;;;;;;;;10.00;51.00;;;8.48;54.92;102561.88;12253255;19;19947;-85
2024/01/31 16:09:53;;;;;;;;;;;10.00;51.00;;;8.50;54.96;102567.94;12256711;19;19914;-86
2024/01/31 16:13:54;;;;;;;;;;;10.00;51.00;;;8.44;54.90;102553.28;12258113;19;19919;-85
2024/01/31 16:17:55;;;;;;;;;;;9.90;51.30;;;8.46;54.82;102555.88;12255902;19;19919;-85
2024/01/31 16:21:57;;;;;;;;;;;9.90;51.00;;;8.45;54.79;102551.53;12259686;19;19914;-89
2024/01/31 16:25:58;;;;;;;;;;;9.90;51.10;;;8.35;54.81;102537.78;12259385;19;19918;-85
2024/01/31 16:30:00;;;;;;;;;;;10.00;51.00;;;8.39;54.77;102549.88;12254190;19;19926;-85
2024/01/31 16:34:01;;;;;;;;;;;9.80;50.90;;;8.36;54.71;102535.13;12262353;19;20335;-85
2024/01/31 16:38:03;;;;;;;;;;;9.80;50.90;;;8.26;54.68;102514.50;12259337;19;20004;-86
2024/01/31 16:42:04;;;;;;;;;;;9.80;51.00;;;8.17;54.64;102492.09;12260815;19;19911;-86
2024/01/31 16:46:06;;;;;;;;;;;9.80;51.10;;;8.26;54.82;102507.53;12259848;19;19934;-86
2024/01/31 16:50:08;;;;;;;;;;;9.70;50.90;;;8.30;54.88;102509.22;12254337;19;19933;-85
2024/01/31 16:54:09;;;;;;;;;;;9.70;51.00;;;8.04;54.68;102467.16;12255004;19;19935;-85
2024/01/31 16:58:10;;;;;;;;;;;9.70;51.00;;;8.26;54.86;102517.09;12250699;19;19938;-86
2024/01/31 17:02:12;;;;;;;;;;;9.70;51.00;;;8.23;54.77;102505.00;12256495;19;19923;-85
2024/01/31 17:06:14;;;;;;;;;;;9.80;51.00;;;8.17;54.69;102489.50;12255530;19;19921;-85
2024/01/31 17:10:16;;;;;;;;;;;9.70;51.00;;;8.22;54.72;102490.28;12251604;19;19921;-85
2024/01/31 17:14:17;;;;;;;;;;;9.70;51.00;;;8.16;54.84;102474.78;12254985;19;19932;-85
2024/01/31 17:18:19;;;;;;;;;;;9.70;51.10;;;8.26;54.86;102493.69;12246666;19;20630;-85
2024/01/31 17:22:20;;;;;;;;;;;9.70;51.00;;;8.15;54.76;102467.84;12253000;19;19937;-86
2024/01/31 17:26:21;;;;;;;;;;;9.70;51.00;;;8.17;54.70;102469.53;12251112;19;19910;-85
2024/01/31 17:30:23;;;;;;;;;;;9.70;51.10;;;8.25;54.59;102487.63;12249380;19;20257;-85
2024/01/31 17:34:24;;;;;;;;;;;9.70;51.10;;;8.21;54.74;102475.56;12251101;19;19925;-85
2024/01/31 17:38:26;;;;;;;;;;;9.70;51.00;;;8.16;54.85;102465.22;12251553;19;19940;-85
2024/01/31 17:42:27;;;;;;;;;;;9.70;50.90;;;8.17;54.77;102468.66;12251081;19;20280;-85
2024/01/31 17:46:28;;;;;;;;;;;9.60;50.90;;;8.13;54.71;102457.47;12252339;19;20238;-86
2024/01/31 17:50:30;;;;;;;;;;;9.60;51.00;;;8.08;54.61;102430.66;12251954;19;19926;-85
2024/01/31 17:54:31;;;;;;;;;;;9.60;51.00;;;8.19;54.61;102436.53;12253074;19;20325;-85
2024/01/31 17:58:35;;;;;;;;;;;9.70;51.00;;;8.22;54.66;102432.16;12248644;19;19918;-85
2024/01/31 18:02:36;;;;;;;;;;;9.70;51.00;;;8.16;54.60;102418.38;12253714;19;19903;-86
2024/01/31 18:06:39;;;;;;;;;;;9.70;51.00;;;7.98;54.60;102383.13;12248977;19;20302;-85
2024/01/31 18:10:41;;;;;;;;;;;9.70;51.00;;;8.17;54.59;102420.09;12251631;19;20365;-86
2024/01/31 18:14:44;;;;;;;;;;;9.70;50.90;;;8.09;54.81;102382.09;12251696;19;20366;-85